Climatologie pour Saint-Brevin les Pins
 
Jour • Résumé pour novembre 24, 2017 Système :  Métrique    Anglais   Mixte
« - 1 jour
+ 1 jour »
Jour Semaine Mois Année Personnalisé
  Actuellement : Maximum : Minimum : Moyenne :
Température sous abri : 8.8 °C 14.4 °C 8.8 °C 12 °C
Point de rosée : 8.3 °C 13.2 °C 8.3 °C 10.5 °C
Humidité : 97 % 97 % 78 % 91 %
Vitesse du vent : 0.0 km/h 29.0 km/h 0.0 km/h 5.1 km/h
Rafale : 0.0 km/h 38.6 km/h - -
Direction :Calm - - West
Pression : 1014.4 hPa 1014.4 hPa 1008.4 hPa -
Précipitations : 0.5 mm      
Historical Graphs
 
 
Tableau de données pour novembre 24, 2017
Heure Tempé Pt rosée Pression Vent Vitesse Rafale Humidité Taux pluie (/hr) Soleil
00:25 14.3 °C 13.2 °C 1008.7 hPa SSE 3.2 km/h 25.7 km/h 93 % 0.0 mm 0 W/m2
00:40 14.3 °C 13.0 °C 1008.7 hPa SSW 20.9 km/h 37.0 km/h 92 % 0.0 mm 0 W/m2
00:55 14.1 °C 12.8 °C 1008.7 hPa WSW 29.0 km/h 33.8 km/h 92 % 0.0 mm 0 W/m2
01:00 14.1 °C 12.8 °C 1008.7 hPa WSW 16.1 km/h 33.8 km/h 92 % 0.0 mm 0 W/m2
01:05 14.2 °C 12.9 °C 1008.7 hPa WSW 12.9 km/h 38.6 km/h 92 % 0.0 mm 0 W/m2
01:10 14.2 °C 12.9 °C 1008.7 hPa WSW 22.5 km/h 38.6 km/h 92 % 0.0 mm 0 W/m2
01:25 14.2 °C 12.9 °C 1008.7 hPa SSW 9.7 km/h 30.6 km/h 92 % 0.0 mm 0 W/m2
01:30 14.2 °C 12.9 °C 1008.7 hPa WSW 11.3 km/h 25.7 km/h 92 % 0.0 mm 0 W/m2
01:35 14.2 °C 12.9 °C 1008.4 hPa WSW 11.3 km/h 27.4 km/h 92 % 0.0 mm 0 W/m2
01:40 14.2 °C 12.9 °C 1008.4 hPa SW 8.0 km/h 27.4 km/h 92 % 0.0 mm 0 W/m2
01:45 14.2 °C 12.9 °C 1008.4 hPa West 6.4 km/h 27.4 km/h 92 % 0.0 mm 0 W/m2
01:50 14.2 °C 12.9 °C 1008.4 hPa WSW 8.0 km/h 29.0 km/h 92 % 0.0 mm 0 W/m2
01:55 14.2 °C 12.9 °C 1008.4 hPa SSW 11.3 km/h 29.0 km/h 92 % 0.0 mm 0 W/m2
02:00 14.2 °C 12.9 °C 1008.7 hPa SW 14.5 km/h 25.7 km/h 92 % 0.0 mm 0 W/m2
02:10 14.2 °C 12.9 °C 1008.7 hPa West 11.3 km/h 30.6 km/h 92 % 0.0 mm 0 W/m2
02:15 14.2 °C 12.9 °C 1008.7 hPa WSW 24.1 km/h 25.7 km/h 92 % 0.0 mm 0 W/m2
02:20 14.2 °C 12.9 °C 1008.7 hPa WSW 12.9 km/h 25.7 km/h 92 % 0.0 mm 0 W/m2
02:25 14.3 °C 13.0 °C 1008.7 hPa West 14.5 km/h 35.4 km/h 92 % 0.0 mm 0 W/m2
02:30 14.3 °C 13.0 °C 1008.7 hPa SSW 3.2 km/h 35.4 km/h 92 % 0.0 mm 0 W/m2
02:40 14.3 °C 13.0 °C 1008.7 hPa SSW 8.0 km/h 24.1 km/h 92 % 0.0 mm 0 W/m2
02:50 14.3 °C 13.0 °C 1009.0 hPa West 9.7 km/h 29.0 km/h 92 % 0.0 mm 0 W/m2
02:55 14.3 °C 13.0 °C 1009.0 hPa SW 20.9 km/h 33.8 km/h 92 % 0.0 mm 0 W/m2
03:00 14.3 °C 13.1 °C 1009.0 hPa WSW 14.5 km/h 33.8 km/h 92 % 0.0 mm 0 W/m2
03:05 14.4 °C 12.9 °C 1009.0 hPa WSW 16.1 km/h 30.6 km/h 91 % 0.0 mm 0 W/m2
03:10 14.4 °C 13.0 °C 1009.0 hPa West 16.1 km/h 29.0 km/h 91 % 0.0 mm 0 W/m2
03:15 14.4 °C 12.9 °C 1009.0 hPa WNW 4.8 km/h 32.2 km/h 91 % 0.0 mm 0 W/m2
03:20 14.3 °C 12.9 °C 1009.0 hPa WSW 24.1 km/h 32.2 km/h 91 % 0.0 mm 0 W/m2
03:25 14.3 °C 13.0 °C 1009.0 hPa West 6.4 km/h 30.6 km/h 92 % 0.0 mm 0 W/m2
03:45 14.1 °C 12.7 °C 1008.7 hPa SW 20.9 km/h 30.6 km/h 91 % 0.0 mm 0 W/m2
03:50 14.1 °C 12.7 °C 1008.7 hPa WSW 19.3 km/h 27.4 km/h 91 % 0.0 mm 0 W/m2
03:55 14.1 °C 12.6 °C 1008.7 hPa WSW 9.7 km/h 27.4 km/h 91 % 0.0 mm 0 W/m2
04:05 14.1 °C 12.4 °C 1008.7 hPa WSW 16.1 km/h 25.7 km/h 90 % 0.0 mm 0 W/m2
04:10 14.0 °C 12.6 °C 1008.7 hPa WSW 11.3 km/h 24.1 km/h 91 % 0.0 mm 0 W/m2
04:25 13.9 °C 12.4 °C 1008.7 hPa WSW 8.0 km/h 29.0 km/h 91 % 0.0 mm 0 W/m2
04:30 13.9 °C 12.4 °C 1008.7 hPa WNW 6.4 km/h 29.0 km/h 91 % 0.0 mm 0 W/m2
04:45 13.8 °C 12.4 °C 1009.0 hPa West 6.4 km/h 22.5 km/h 91 % 0.0 mm 0 W/m2
04:50 13.9 °C 12.5 °C 1008.7 hPa WSW 12.9 km/h 30.6 km/h 91 % 0.0 mm 0 W/m2
04:55 13.9 °C 12.5 °C 1009.0 hPa WNW 6.4 km/h 30.6 km/h 91 % 0.0 mm 0 W/m2
05:10 13.6 °C 12.1 °C 1009.4 hPa WNW 8.0 km/h 24.1 km/h 91 % 0.0 mm 0 W/m2
05:15 13.4 °C 12.2 °C 1009.4 hPa WNW 4.8 km/h 22.5 km/h 92 % 0.0 mm 0 W/m2
05:20 13.3 °C 12.1 °C 1009.4 hPa West 17.7 km/h 25.7 km/h 92 % 0.0 mm 0 W/m2
05:25 13.3 °C 12.2 °C 1009.4 hPa West 9.7 km/h 25.7 km/h 93 % 0.0 mm 0 W/m2
05:40 13.0 °C 12.1 °C 1009.4 hPa West 4.8 km/h 16.1 km/h 94 % 0.0 mm 0 W/m2
05:50 12.9 °C 11.9 °C 1009.4 hPa WNW 6.4 km/h 20.9 km/h 94 % 0.0 mm 0 W/m2
05:55 12.9 °C 11.9 °C 1009.4 hPa WNW 11.3 km/h 20.9 km/h 94 % 0.0 mm 0 W/m2
06:05 12.9 °C 11.9 °C 1009.7 hPa NW 3.2 km/h 16.1 km/h 94 % 0.0 mm 0 W/m2
06:10 12.8 °C 11.9 °C 1009.7 hPa WNW 9.7 km/h 14.5 km/h 94 % 0.0 mm 0 W/m2
06:15 12.8 °C 11.9 °C 1009.4 hPa NW 9.7 km/h 12.9 km/h 94 % 0.0 mm 0 W/m2
06:20 12.8 °C 11.8 °C 1009.4 hPa WNW 3.2 km/h 16.1 km/h 94 % 0.0 mm 0 W/m2
06:25 12.7 °C 11.8 °C 1009.4 hPa West 6.4 km/h 16.1 km/h 94 % 0.0 mm 0 W/m2
06:35 12.6 °C 11.6 °C 1009.7 hPa WNW 6.4 km/h 16.1 km/h 94 % 0.0 mm 0 W/m2
06:45 12.4 °C 11.5 °C 1009.7 hPa NW 6.4 km/h 20.9 km/h 94 % 0.0 mm 0 W/m2
06:50 12.2 °C 11.3 °C 1009.7 hPa West 6.4 km/h 20.9 km/h 94 % 0.0 mm 0 W/m2
07:00 11.9 °C 11.0 °C 1010.0 hPa NW 11.3 km/h 19.3 km/h 94 % 0.0 mm 0 W/m2
07:05 11.8 °C 10.9 °C 1010.4 hPa WNW 4.8 km/h 19.3 km/h 94 % 0.0 mm 0 W/m2
07:10 11.6 °C 10.7 °C 1010.4 hPa NW 9.7 km/h 16.1 km/h 94 % 0.0 mm 0 W/m2
07:15 11.3 °C 10.2 °C 1010.4 hPa West 4.8 km/h 12.9 km/h 93 % 0.0 mm 0 W/m2
07:20 11.2 °C 10.1 °C 1010.4 hPa NW 12.9 km/h 12.9 km/h 93 % 0.0 mm 0 W/m2
07:30 10.9 °C 9.9 °C 1010.7 hPa West 8.0 km/h 12.9 km/h 93 % 0.0 mm 0 W/m2
07:35 10.9 °C 10.0 °C 1010.7 hPa WNW 3.2 km/h 12.9 km/h 94 % 0.0 mm 0 W/m2
07:40 10.7 °C 9.6 °C 1010.7 hPa NW 1.6 km/h 12.9 km/h 93 % 0.0 mm 0 W/m2
07:50 10.4 °C 9.5 °C 1011.1 hPa NW 4.8 km/h 11.3 km/h 94 % 0.0 mm 0 W/m2
07:55 10.3 °C 9.4 °C 1011.1 hPa NW 3.2 km/h 9.7 km/h 94 % 0.0 mm 0 W/m2
08:00 10.2 °C 9.3 °C 1011.1 hPa Calm   9.7 km/h 94 % 0.0 mm 0 W/m2
08:05 10.2 °C 9.2 °C 1011.1 hPa NW 8.0 km/h 8.0 km/h 94 % 0.0 mm 0 W/m2
08:10 10.0 °C 9.1 °C 1011.4 hPa NW 3.2 km/h 8.0 km/h 94 % 0.0 mm 0 W/m2
08:15 10.0 °C 9.2 °C 1011.4 hPa NW 1.6 km/h 8.0 km/h 95 % 0.0 mm 0 W/m2
08:30 9.9 °C 9.2 °C 1011.7 hPa NW 1.6 km/h 6.4 km/h 95 % 0.0 mm 0 W/m2
08:35 9.8 °C 9.1 °C 1011.7 hPa WNW 1.6 km/h 8.0 km/h 95 % 0.0 mm 0 W/m2
08:40 9.7 °C 9.0 °C 1011.7 hPa Calm   8.0 km/h 95 % 0.0 mm 7 W/m2
08:50 9.5 °C 8.7 °C 1012.4 hPa WNW 1.6 km/h 3.2 km/h 95 % 0.0 mm 7 W/m2
09:00 9.3 °C 8.7 °C 1012.4 hPa Calm   3.2 km/h 96 % 0.0 mm 9 W/m2
09:05 9.4 °C 8.8 °C 1012.8 hPa Calm   3.2 km/h 96 % 0.0 mm 9 W/m2
09:10 9.4 °C 8.8 °C 1012.8 hPa Calm   3.2 km/h 96 % 0.0 mm 12 W/m2
09:15 9.4 °C 8.8 °C 1012.8 hPa Calm   3.2 km/h 96 % 0.0 mm 19 W/m2
09:20 9.4 °C 8.8 °C 1012.8 hPa Calm   1.6 km/h 96 % 0.0 mm 23 W/m2
09:25 9.3 °C 8.7 °C 1013.1 hPa Calm   1.6 km/h 96 % 0.0 mm 25 W/m2
09:35 9.3 °C 8.7 °C 1013.1 hPa Calm     96 % 0.0 mm 26 W/m2
09:40 9.2 °C 8.6 °C 1013.1 hPa Calm   3.2 km/h 96 % 0.0 mm 33 W/m2
09:50 9.4 °C 8.9 °C 1013.1 hPa Calm   1.6 km/h 97 % 0.0 mm 58 W/m2
09:55 9.7 °C 9.2 °C 1013.1 hPa Calm     97 % 0.0 mm 54 W/m2
10:05 10.1 °C 9.7 °C 1013.1 hPa Calm   1.6 km/h 97 % 0.0 mm 105 W/m2
10:15 10.7 °C 10.2 °C 1013.4 hPa Calm   1.6 km/h 97 % 0.0 mm 105 W/m2
10:20 10.8 °C 10.4 °C 1013.4 hPa Calm   4.8 km/h 97 % 0.0 mm 100 W/m2
10:25 10.9 °C 10.3 °C 1013.8 hPa West 4.8 km/h 8.0 km/h 96 % 0.0 mm 258 W/m2
10:30 11.4 °C 10.8 °C 1013.8 hPa WNW 1.6 km/h 8.0 km/h 96 % 0.0 mm 91 W/m2
10:40 11.7 °C 10.6 °C 1013.8 hPa NW 4.8 km/h 9.7 km/h 93 % 0.0 mm 190 W/m2
10:45 11.8 °C 10.6 °C 1013.8 hPa NW 1.6 km/h 8.0 km/h 92 % 0.0 mm 81 W/m2
10:50 11.6 °C 10.4 °C 1014.1 hPa WNW 4.8 km/h 9.7 km/h 92 % 0.0 mm 111 W/m2
10:55 11.6 °C 10.1 °C 1014.1 hPa WNW 3.2 km/h 12.9 km/h 91 % 0.0 mm 97 W/m2
11:00 11.7 °C 10.1 °C 1014.1 hPa West 3.2 km/h 12.9 km/h 90 % 0.0 mm 83 W/m2
11:05 11.7 °C 9.9 °C 1014.1 hPa WNW 4.8 km/h 12.9 km/h 89 % 0.0 mm 69 W/m2
11:10 11.7 °C 9.7 °C 1014.4 hPa Calm   12.9 km/h 88 % 0.0 mm 105 W/m2
11:15 11.8 °C 10.0 °C 1014.4 hPa WNW 6.4 km/h 9.7 km/h 89 % 0.0 mm 93 W/m2
11:20 11.8 °C 9.9 °C 1014.4 hPa WNW 1.6 km/h 9.7 km/h 88 % 0.0 mm 114 W/m2
11:25 12.0 °C 10.1 °C 1014.4 hPa Calm   8.0 km/h 88 % 0.0 mm 137 W/m2
11:30 12.2 °C 10.2 °C 1014.4 hPa NW 1.6 km/h 8.0 km/h 88 % 0.0 mm 116 W/m2
11:35 12.2 °C 10.1 °C 1014.4 hPa NW 3.2 km/h 9.7 km/h 87 % 0.0 mm 104 W/m2
11:40 12.0 °C 9.7 °C 1014.4 hPa NW 6.4 km/h 9.7 km/h 86 % 0.0 mm 93 W/m2
11:55 12.1 °C 9.6 °C 1014.4 hPa NW 1.6 km/h 8.0 km/h 85 % 0.0 mm 111 W/m2
12:00 12.1 °C 9.6 °C 1014.1 hPa WNW 1.6 km/h 8.0 km/h 85 % 0.0 mm 134 W/m2
12:05 12.2 °C 9.5 °C 1014.4 hPa WNW 1.6 km/h 8.0 km/h 84 % 0.0 mm 174 W/m2
12:10 12.3 °C 9.7 °C 1014.1 hPa Calm   6.4 km/h 84 % 0.0 mm 163 W/m2
12:15 12.4 °C 9.6 °C 1014.1 hPa WNW 3.2 km/h 4.8 km/h 83 % 0.0 mm 190 W/m2
12:25 12.6 °C 9.4 °C 1013.8 hPa Calm   4.8 km/h 81 % 0.0 mm 179 W/m2
12:30 12.5 °C 9.1 °C 1013.8 hPa WNW 3.2 km/h 4.8 km/h 80 % 0.0 mm 378 W/m2
12:35 13.1 °C 9.9 °C 1013.8 hPa WNW 1.6 km/h 4.8 km/h 81 % 0.0 mm 385 W/m2
12:40 13.4 °C 10.1 °C 1014.1 hPa West 8.0 km/h 11.3 km/h 80 % 0.0 mm 357 W/m2
12:45 13.4 °C 10.0 °C 1014.1 hPa WSW 1.6 km/h 11.3 km/h 80 % 0.0 mm 359 W/m2
12:50 13.6 °C 10.0 °C 1014.1 hPa WNW 1.6 km/h 11.3 km/h 79 % 0.0 mm 367 W/m2
13:00 13.1 °C 9.9 °C 1014.1 hPa West 3.2 km/h 8.0 km/h 81 % 0.0 mm 380 W/m2
13:05 13.1 °C 9.7 °C 1014.1 hPa WSW 8.0 km/h 8.0 km/h 80 % 0.0 mm 373 W/m2
13:10 12.9 °C 9.1 °C 1014.1 hPa WSW 6.4 km/h 8.0 km/h 78 % 0.0 mm 364 W/m2
13:15 13.0 °C 9.3 °C 1013.8 hPa WSW 8.0 km/h 9.7 km/h 78 % 0.0 mm 355 W/m2
13:20 13.1 °C 9.9 °C 1013.8 hPa West 3.2 km/h 11.3 km/h 81 % 0.0 mm 353 W/m2
13:25 13.3 °C 9.9 °C 1013.8 hPa WSW 6.4 km/h 11.3 km/h 80 % 0.0 mm 348 W/m2
13:30 13.6 °C 10.2 °C 1013.8 hPa WSW 1.6 km/h 11.3 km/h 80 % 0.0 mm 350 W/m2
13:35 13.7 °C 10.3 °C 1013.8 hPa West 8.0 km/h 14.5 km/h 80 % 0.0 mm 332 W/m2
13:40 13.4 °C 10.0 °C 1013.8 hPa WSW 9.7 km/h 14.5 km/h 80 % 0.0 mm 301 W/m2
13:45 13.1 °C 9.9 °C 1013.8 hPa SW 4.8 km/h 11.3 km/h 81 % 0.0 mm 181 W/m2
13:50 12.9 °C 9.7 °C 1013.8 hPa WSW 6.4 km/h 12.9 km/h 81 % 0.0 mm 209 W/m2
13:55 12.8 °C 10.0 °C 1013.8 hPa West 1.6 km/h 12.9 km/h 83 % 0.0 mm 225 W/m2
14:00 12.7 °C 9.9 °C 1014.1 hPa WSW 6.4 km/h 11.3 km/h 83 % 0.0 mm 211 W/m2
14:05 12.9 °C 10.2 °C 1014.1 hPa WSW 3.2 km/h 11.3 km/h 84 % 0.0 mm 206 W/m2
14:10 13.0 °C 10.4 °C 1013.8 hPa WSW 6.4 km/h 8.0 km/h 84 % 0.0 mm 225 W/m2
14:15 12.9 °C 9.9 °C 1013.8 hPa West 4.8 km/h 9.7 km/h 82 % 0.0 mm 209 W/m2
14:20 12.8 °C 9.8 °C 1013.8 hPa West 6.4 km/h 9.7 km/h 82 % 0.0 mm 206 W/m2
14:25 12.8 °C 9.8 °C 1013.8 hPa West 3.2 km/h 9.7 km/h 82 % 0.0 mm 202 W/m2
14:30 12.9 °C 9.7 °C 1013.8 hPa SW 6.4 km/h 8.0 km/h 81 % 0.0 mm 204 W/m2
14:35 12.8 °C 9.7 °C 1013.8 hPa Calm   8.0 km/h 81 % 0.0 mm 178 W/m2
14:40 12.8 °C 9.8 °C 1013.8 hPa Calm   6.4 km/h 82 % 0.0 mm 218 W/m2
14:50 13.4 °C 10.2 °C 1013.8 hPa South 8.0 km/h 9.7 km/h 81 % 0.0 mm 153 W/m2
14:55 13.1 °C 9.7 °C 1013.4 hPa SSW 4.8 km/h 9.7 km/h 80 % 0.0 mm 107 W/m2
15:00 12.8 °C 9.8 °C 1013.4 hPa SW 4.8 km/h 9.7 km/h 82 % 0.0 mm 76 W/m2
15:10 12.7 °C 9.9 °C 1013.4 hPa SW 4.8 km/h 8.0 km/h 83 % 0.0 mm 102 W/m2
15:15 12.7 °C 9.9 °C 1013.4 hPa SW 6.4 km/h 9.7 km/h 83 % 0.0 mm 134 W/m2
15:20 12.8 °C 10.3 °C 1013.8 hPa WNW 9.7 km/h 12.9 km/h 85 % 0.0 mm 21 W/m2
15:25 12.3 °C 10.1 °C 1013.8 hPa WNW 4.8 km/h 12.9 km/h 86 % 0.0 mm 16 W/m2
15:35 11.7 °C 10.0 °C 1013.8 hPa NNW 1.6 km/h 12.9 km/h 89 % 0.0 mm 14 W/m2
15:40 11.6 °C 10.0 °C 1013.8 hPa Calm   12.9 km/h 90 % 0.0 mm 11 W/m2
15:45 11.4 °C 10.0 °C 1013.8 hPa Calm   8.0 km/h 91 % 0.0 mm 18 W/m2
15:50 11.2 °C 10.0 °C 1013.8 hPa Calm   8.0 km/h 92 % 0.3 mm 14 W/m2
15:55 11.0 °C 9.7 °C 1013.8 hPa Calm   6.4 km/h 92 % 0.3 mm 23 W/m2
16:00 10.9 °C 9.9 °C 1013.8 hPa Calm   6.4 km/h 93 % 0.5 mm 39 W/m2
16:05 10.9 °C 9.8 °C 1013.8 hPa Calm   3.2 km/h 93 % 0.5 mm 53 W/m2
16:10 11.0 °C 10.1 °C 1013.8 hPa Calm   3.2 km/h 94 % 0.5 mm 65 W/m2
16:15 11.0 °C 10.1 °C 1013.8 hPa Calm   3.2 km/h 94 % 0.5 mm 74 W/m2
16:20 11.0 °C 10.1 °C 1013.4 hPa Calm   3.2 km/h 94 % 0.5 mm 67 W/m2
16:25 11.0 °C 10.1 °C 1013.4 hPa Calm     94 % 0.5 mm 51 W/m2
16:30 10.9 °C 10.0 °C 1013.8 hPa Calm   1.6 km/h 94 % 0.5 mm 42 W/m2
16:35 10.8 °C 9.9 °C 1013.8 hPa Calm   1.6 km/h 94 % 0.5 mm 40 W/m2
16:40 10.7 °C 9.7 °C 1013.8 hPa Calm   3.2 km/h 94 % 0.5 mm 35 W/m2
16:45 10.6 °C 9.7 °C 1013.8 hPa Calm   3.2 km/h 94 % 0.5 mm 30 W/m2
16:50 10.4 °C 9.7 °C 1013.8 hPa Calm   1.6 km/h 95 % 0.3 mm 25 W/m2
16:55 10.3 °C 9.5 °C 1013.8 hPa Calm   1.6 km/h 95 % 0.3 mm 19 W/m2
17:05 10.1 °C 9.3 °C 1014.1 hPa Calm     95 % 0.0 mm 11 W/m2
17:10 9.9 °C 9.2 °C 1014.1 hPa Calm     95 % 0.0 mm 7 W/m2
17:15 9.8 °C 9.2 °C 1014.1 hPa Calm     96 % 0.0 mm 0 W/m2
17:20 9.8 °C 9.2 °C 1014.1 hPa Calm   1.6 km/h 96 % 0.0 mm 0 W/m2
17:25 9.8 °C 9.2 °C 1014.1 hPa Calm   3.2 km/h 96 % 0.0 mm 0 W/m2
17:30 9.8 °C 9.2 °C 1014.1 hPa Calm   3.2 km/h 96 % 0.0 mm 0 W/m2
17:35 9.9 °C 9.3 °C 1014.1 hPa Calm   4.8 km/h 96 % 0.0 mm 0 W/m2
17:40 9.8 °C 9.2 °C 1014.1 hPa Calm   4.8 km/h 96 % 0.0 mm 0 W/m2
17:50 9.6 °C 9.0 °C 1014.1 hPa Calm   3.2 km/h 96 % 0.0 mm 0 W/m2
17:55 9.4 °C 8.8 °C 1014.1 hPa NW 1.6 km/h 3.2 km/h 96 % 0.0 mm 0 W/m2
18:00 9.4 °C 8.8 °C 1014.4 hPa Calm   1.6 km/h 96 % 0.0 mm 0 W/m2
18:05 9.3 °C 8.7 °C 1014.4 hPa Calm   1.6 km/h 96 % 0.0 mm 0 W/m2
18:10 9.3 °C 8.7 °C 1014.1 hPa Calm     96 % 0.0 mm 0 W/m2
18:15 9.2 °C 8.6 °C 1014.1 hPa Calm     96 % 0.0 mm 0 W/m2
18:20 9.1 °C 8.5 °C 1014.1 hPa Calm     96 % 0.0 mm 0 W/m2
18:25 9.0 °C 8.4 °C 1014.1 hPa Calm     96 % 0.0 mm 0 W/m2
18:35 9.0 °C 8.5 °C 1014.1 hPa Calm     97 % 0.0 mm 0 W/m2
18:40 8.9 °C 8.3 °C 1014.4 hPa Calm     96 % 0.0 mm 0 W/m2
18:45 8.8 °C 8.4 °C 1014.4 hPa Calm     97 % 0.0 mm 0 W/m2
18:50 8.8 °C 8.3 °C 1014.4 hPa Calm     97 % 0.0 mm 0 W/m2
18:55 8.8 °C 8.3 °C 1014.4 hPa Calm   3.2 km/h 97 % 0.0 mm 0 W/m2
19:00 8.8 °C 8.3 °C 1014.4 hPa Calm   3.2 km/h 97 % 0.0 mm 0 W/m2
19:05 8.8 °C 8.3 °C 1014.4 hPa Calm     97 % 0.0 mm 0 W/m2
Avec l'autorisation de Weather Underground - 1.25 mb